LCRA/AKT METAR and TAF weather

Enter ICAO airport designator
Station Type Date Time Source
LCRA METAR 2019/08/24 08:50 UTC NOAA

LCRA 240850Z 15008KT 9999 FEW060 33/22 Q1008 NOSIG RMK BLU BLU


Station Type Date Time Source
LCRA Decoded METAR 2019/08/24 08:50 UTC NOAA

Station name not available
Aug 24, 2019 - 04:50 AM EDT / 2019.08.24 0850 UTC
Wind: from the SSE (150 degrees) at 9 MPH (8 KT):0
Visibility: greater than 7 mile(s):0
Sky conditions: mostly clear
Temperature: 91 F (33 C)
Heat index: 97.5 F (36.4 C):1
Dew Point: 71 F (22 C)
Relative Humidity: 52%
Pressure (altimeter): 29.77 in. Hg (1008 hPa)
ob: LCRA 240850Z 15008KT 9999 FEW060 33/22 Q1008 NOSIG RMK BLU BLU
cycle: 9

Station Type Date Time Source
LCRA TAF 2019/08/24 09:11 UTC NOAA

TAF LCRA 240705Z 2409/2503 08005KT CAVOK
BECMG 2409/2412 26012KT

Example: see airport list